Time;durP1;ratioP1;P1;durP2;ratioP2;P2;SDS_P1;SDS_P2;PMS_P1;PMS_P2;Temp;Humidity;BMP_temperature;BMP_pressure;BME280_temperature;BME280_humidity;BME280_pressure;Samples;Min_cycle;Max_cycle;Signal;HPM_P1;HPM_P2
2023/02/03 00:00:15;;;;;;;;;;;;;;;20.09;35.85;100883.72;105780;1286;60470;-81
2023/02/03 00:02:41;;;;;;;;;;;;;;;20.09;35.89;100886.39;105763;1286;60488;-81
2023/02/03 00:05:06;;;;;;;;;;;;;;;20.09;35.85;100891.40;105855;1286;60480;-81
2023/02/03 00:07:33;;;;;;;;;;;;;;;20.09;35.74;100897.64;105808;1286;60485;-81
2023/02/03 00:09:59;;;;;;;;;;;;;;;20.09;35.90;100902.48;105764;1286;72487;-81
2023/02/03 00:12:24;;;;;;;;;;;;;;;20.08;35.83;100902.88;105755;1286;60104;-81
2023/02/03 00:15:13;;;;;;;;;;;;;;;20.08;35.79;100909.14;105801;1286;61273;-81
2023/02/03 00:17:39;;;;;;;;;;;;;;;20.08;35.87;100911.45;105262;1291;61295;-81
2023/02/03 00:20:04;;;;;;;;;;;;;;;20.08;35.89;100915.91;105137;1292;61548;-81
2023/02/03 00:22:30;;;;;;;;;;;;;;;20.08;35.73;100913.60;105190;1293;61331;-80
2023/02/03 00:24:55;;;;;;;;;;;;;;;20.08;35.86;100908.04;105061;1291;61490;-80
2023/02/03 00:27:21;;;;;;;;;;;;;;;20.08;35.84;100904.28;105173;1292;61437;-80
2023/02/03 00:29:46;;;;;;;;;;;;;;;20.08;35.86;100908.25;105211;1295;61275;-80
2023/02/03 00:32:12;;;;;;;;;;;;;;;20.08;35.72;100913.42;105334;1291;61485;-80
2023/02/03 00:34:37;;;;;;;;;;;;;;;20.08;35.85;100915.77;105156;1292;61553;-80
2023/02/03 00:37:03;;;;;;;;;;;;;;;20.08;35.72;100917.20;105253;1291;61365;-80
2023/02/03 00:39:28;;;;;;;;;;;;;;;20.08;35.86;100920.41;105228;1292;61391;-80
2023/02/03 00:41:54;;;;;;;;;;;;;;;20.08;35.76;100915.59;105165;1292;59495;-82
2023/02/03 00:44:19;;;;;;;;;;;;;;;20.08;35.87;100910.59;105360;1292;60284;-82
2023/02/03 00:46:45;;;;;;;;;;;;;;;20.08;35.90;100909.32;105253;1291;61426;-81
2023/02/03 00:49:10;;;;;;;;;;;;;;;20.08;35.91;100905.41;105240;1292;61308;-80
2023/02/03 00:51:36;;;;;;;;;;;;;;;20.08;35.78;100901.84;105217;1291;61205;-80
2023/02/03 00:54:01;;;;;;;;;;;;;;;20.08;35.83;100903.09;105431;1292;61270;-80
2023/02/03 00:56:27;;;;;;;;;;;;;;;20.07;35.77;100900.27;105959;1286;61247;-80
2023/02/03 00:58:52;;;;;;;;;;;;;;;20.08;35.87;100898.09;105900;1285;61352;-80
2023/02/03 01:01:18;;;;;;;;;;;;;;;20.07;35.84;100894.91;105977;1285;61265;-80
2023/02/03 01:03:43;;;;;;;;;;;;;;;20.07;35.61;100895.98;105942;1285;61287;-80
2023/02/03 01:06:13;;;;;;;;;;;;;;;20.07;35.76;100897.21;105892;1284;61249;-80
2023/02/03 01:08:39;;;;;;;;;;;;;;;20.07;35.76;100894.55;105912;1285;73444;-80
2023/02/03 01:11:08;;;;;;;;;;;;;;;20.07;35.74;100893.64;105946;1285;61230;-80
2023/02/03 01:13:34;;;;;;;;;;;;;;;20.07;35.85;100888.29;105947;1285;61142;-81
2023/02/03 01:16:00;;;;;;;;;;;;;;;20.07;35.72;100882.23;105882;1286;61281;-81
2023/02/03 01:18:25;;;;;;;;;;;;;;;20.07;35.90;100880.83;105879;1286;61307;-81
2023/02/03 01:20:51;;;;;;;;;;;;;;;20.07;35.80;100877.95;105885;1286;61275;-81
2023/02/03 01:23:16;;;;;;;;;;;;;;;20.07;35.77;100882.73;105942;1286;61240;-81
2023/02/03 01:25:42;;;;;;;;;;;;;;;20.07;35.68;100883.67;105857;1285;61218;-82
2023/02/03 01:28:07;;;;;;;;;;;;;;;20.07;35.80;100885.61;105972;1285;61240;-82
2023/02/03 01:30:32;;;;;;;;;;;;;;;20.07;35.77;100885.83;105920;1286;61272;-82
2023/02/03 01:32:58;;;;;;;;;;;;;;;20.07;35.79;100884.39;105871;1286;61394;-82
2023/02/03 01:35:23;;;;;;;;;;;;;;;20.07;35.78;100878.84;105988;1285;61201;-81
2023/02/03 01:37:49;;;;;;;;;;;;;;;20.07;35.84;100886.33;105938;1288;61299;-82
2023/02/03 01:40:14;;;;;;;;;;;;;;;20.06;35.67;100888.69;105903;1285;61268;-82
2023/02/03 01:42:40;;;;;;;;;;;;;;;20.06;35.89;100890.86;105944;1288;61320;-82
2023/02/03 01:45:06;;;;;;;;;;;;;;;20.06;35.90;100893.70;105707;1285;61436;-82
2023/02/03 01:47:51;;;;;;;;;;;;;;;20.06;35.74;100895.67;105978;1285;61336;-82
2023/02/03 01:50:19;;;;;;;;;;;;;;;20.06;35.81;100898.02;105757;1285;61124;-82
2023/02/03 01:52:46;;;;;;;;;;;;;;;20.06;35.73;100899.96;105996;1285;61384;-82
2023/02/03 01:55:16;;;;;;;;;;;;;;;20.06;35.77;100908.35;105928;1284;72249;-82
2023/02/03 01:57:51;;;;;;;;;;;;;;;20.06;35.81;100916.22;105868;1286;75438;-82
2023/02/03 02:00:16;;;;;;;;;;;;;;;20.06;35.78;100909.27;105850;1285;61249;-82
2023/02/03 02:02:43;;;;;;;;;;;;;;;20.06;35.72;100918.91;105901;1286;61290;-82
2023/02/03 02:05:19;;;;;;;;;;;;;;;20.06;35.82;100917.84;105943;1285;61263;-82
2023/02/03 02:07:45;;;;;;;;;;;;;;;20.06;35.89;100917.64;105955;1285;75482;-81
2023/02/03 02:10:10;;;;;;;;;;;;;;;20.06;35.76;100923.89;105925;1284;61359;-82
2023/02/03 02:12:36;;;;;;;;;;;;;;;20.06;35.72;100924.61;105899;1284;60095;-82
2023/02/03 02:15:01;;;;;;;;;;;;;;;20.06;35.67;100927.99;105888;1285;61366;-81
2023/02/03 02:17:39;;;;;;;;;;;;;;;20.06;35.86;100927.52;105940;1286;59959;-81
2023/02/03 02:20:23;;;;;;;;;;;;;;;20.06;35.74;100925.00;105940;1284;75379;-82
2023/02/03 02:22:49;;;;;;;;;;;;;;;20.06;35.81;100928.73;105877;1286;61346;-82
2023/02/03 02:25:27;;;;;;;;;;;;;;;20.06;35.74;100928.94;105859;1286;61801;-82
2023/02/03 02:28:14;;;;;;;;;;;;;;;20.05;35.69;100923.24;105934;1286;73438;-82
2023/02/03 02:30:49;;;;;;;;;;;;;;;20.05;35.79;100926.64;105597;1285;72184;-82
2023/02/03 02:33:38;;;;;;;;;;;;;;;20.05;35.66;100925.77;105856;1286;61185;-82
2023/02/03 02:36:07;;;;;;;;;;;;;;;20.05;35.68;100927.19;105887;1285;61870;-82
2023/02/03 02:39:08;;;;;;;;;;;;;;;20.05;35.66;100926.83;105930;1286;73264;-82
2023/02/03 02:41:37;;;;;;;;;;;;;;;20.05;35.85;100931.86;105384;1291;74464;-81
2023/02/03 02:44:03;;;;;;;;;;;;;;;20.05;35.65;100933.27;105237;1292;61698;-81
2023/02/03 02:46:31;;;;;;;;;;;;;;;20.05;35.83;100932.19;105386;1291;61117;-82
2023/02/03 02:49:02;;;;;;;;;;;;;;;20.05;35.85;100933.08;105343;1291;73418;-82
2023/02/03 02:51:28;;;;;;;;;;;;;;;20.05;35.82;100939.17;105268;1291;75855;-82
2023/02/03 02:53:55;;;;;;;;;;;;;;;20.05;35.77;100938.98;105259;1292;61406;-82
2023/02/03 02:56:20;;;;;;;;;;;;;;;20.05;35.80;100935.96;105282;1293;61324;-83
2023/02/03 02:58:47;;;;;;;;;;;;;;;20.05;35.86;100940.43;105398;1291;61398;-82
2023/02/03 03:01:13;;;;;;;;;;;;;;;20.05;35.75;100942.76;105219;1292;61331;-82
2023/02/03 03:03:41;;;;;;;;;;;;;;;20.05;35.71;100939.71;105243;1291;61356;-82
2023/02/03 03:06:08;;;;;;;;;;;;;;;20.05;35.91;100944.55;105239;1292;61339;-82
2023/02/03 03:08:39;;;;;;;;;;;;;;;20.05;35.75;100943.13;105205;1292;61166;-82
2023/02/03 03:11:04;;;;;;;;;;;;;;;20.04;35.92;100948.86;105244;1294;75433;-82
2023/02/03 03:13:31;;;;;;;;;;;;;;;20.05;35.86;100950.98;105358;1291;61432;-82
2023/02/03 03:15:59;;;;;;;;;;;;;;;20.05;35.79;100956.34;105489;1285;61811;-81
2023/02/03 03:18:27;;;;;;;;;;;;;;;20.05;35.77;100959.02;105937;1286;72489;-82
2023/02/03 03:20:54;;;;;;;;;;;;;;;20.04;35.63;100958.50;105852;1286;73499;-81
2023/02/03 03:23:29;;;;;;;;;;;;;;;20.05;35.87;100963.67;105907;1285;61205;-81
2023/02/03 03:26:07;;;;;;;;;;;;;;;20.05;35.82;100968.49;105959;1285;61236;-82
2023/02/03 03:28:53;;;;;;;;;;;;;;;20.04;35.81;100962.80;105916;1285;72502;-82
2023/02/03 03:31:18;;;;;;;;;;;;;;;20.04;35.69;100966.38;105924;1285;76712;-82
2023/02/03 03:33:44;;;;;;;;;;;;;;;20.04;35.88;100967.10;105705;1286;61304;-82
2023/02/03 03:36:27;;;;;;;;;;;;;;;20.05;35.76;100970.29;105880;1286;61257;-82
2023/02/03 03:38:54;;;;;;;;;;;;;;;20.04;35.85;100971.92;105850;1286;72385;-82
2023/02/03 03:41:23;;;;;;;;;;;;;;;20.04;35.70;100971.73;105661;1286;75377;-82
2023/02/03 03:43:49;;;;;;;;;;;;;;;20.04;35.73;100972.28;105708;1286;60106;-82
2023/02/03 03:46:22;;;;;;;;;;;;;;;20.04;35.77;100975.33;105901;1285;61295;-82
2023/02/03 03:49:04;;;;;;;;;;;;;;;20.04;35.75;100979.06;105850;1285;72411;-82
2023/02/03 03:51:30;;;;;;;;;;;;;;;20.04;35.83;100976.74;105854;1285;75283;-82
2023/02/03 03:53:56;;;;;;;;;;;;;;;20.04;35.77;100974.24;105944;1284;61236;-82
2023/02/03 03:56:24;;;;;;;;;;;;;;;20.04;35.53;100970.15;105848;1285;61122;-82
2023/02/03 03:58:50;;;;;;;;;;;;;;;20.04;35.82;100976.40;105865;1285;73513;-82
2023/02/03 04:01:15;;;;;;;;;;;;;;;20.04;35.71;100976.04;105922;1285;61327;-82
2023/02/03 04:03:45;;;;;;;;;;;;;;;20.04;35.67;100979.98;105945;1285;61372;-82
2023/02/03 04:06:11;;;;;;;;;;;;;;;20.04;35.66;100976.59;105887;1286;61264;-82
2023/02/03 04:08:38;;;;;;;;;;;;;;;20.04;35.80;100974.98;105872;1285;61368;-82
2023/02/03 04:11:04;;;;;;;;;;;;;;;20.04;35.76;100981.77;105943;1286;61122;-82
2023/02/03 04:13:29;;;;;;;;;;;;;;;20.03;35.72;100981.27;105872;1286;61384;-82
2023/02/03 04:15:55;;;;;;;;;;;;;;;20.03;35.76;100979.13;105891;1284;61288;-82
2023/02/03 04:18:20;;;;;;;;;;;;;;;20.03;35.82;100983.58;105743;1285;60031;-82
2023/02/03 04:20:46;;;;;;;;;;;;;;;20.04;35.84;100994.47;106031;1284;61337;-82
2023/02/03 04:23:13;;;;;;;;;;;;;;;20.04;35.84;100997.33;105879;1284;74397;-82
2023/02/03 04:25:38;;;;;;;;;;;;;;;20.03;35.76;100998.77;105869;1285;61244;-82
2023/02/03 04:28:04;;;;;;;;;;;;;;;20.04;35.70;101003.38;105913;1286;61236;-82
2023/02/03 04:30:30;;;;;;;;;;;;;;;20.04;35.85;101008.55;105870;1290;61164;-82
2023/02/03 04:32:56;;;;;;;;;;;;;;;20.03;35.66;101018.41;105870;1285;61266;-82
2023/02/03 04:35:21;;;;;;;;;;;;;;;20.03;35.55;101021.09;105975;1285;61263;-82
2023/02/03 04:37:47;;;;;;;;;;;;;;;20.03;35.49;101025.05;105992;1284;61369;-82
2023/02/03 04:40:13;;;;;;;;;;;;;;;20.03;35.47;101025.41;105918;1285;61138;-82
2023/02/03 04:42:39;;;;;;;;;;;;;;;20.03;35.31;101025.09;105876;1285;61301;-81
2023/02/03 04:45:05;;;;;;;;;;;;;;;20.02;35.06;101027.23;105943;1285;61265;-81
2023/02/03 04:47:30;;;;;;;;;;;;;;;20.02;35.06;101035.63;105878;1286;61422;-81
2023/02/03 04:49:56;;;;;;;;;;;;;;;20.02;35.07;101043.73;105889;1284;61437;-81
2023/02/03 04:52:21;;;;;;;;;;;;;;;20.02;34.77;101049.41;105938;1286;61384;-81
2023/02/03 04:54:47;;;;;;;;;;;;;;;20.01;34.87;101053.03;105877;1286;72449;-81
2023/02/03 04:57:13;;;;;;;;;;;;;;;20.01;34.68;101055.75;105947;1285;61351;-81
2023/02/03 04:59:38;;;;;;;;;;;;;;;20.02;34.55;101064.61;105957;1286;61704;-81
2023/02/03 05:02:04;;;;;;;;;;;;;;;20.02;34.57;101057.29;105872;1285;61279;-81
2023/02/03 05:04:30;;;;;;;;;;;;;;;20.02;34.51;101058.17;105942;1285;61297;-81
2023/02/03 05:06:56;;;;;;;;;;;;;;;20.02;34.25;101065.48;105946;1286;59367;-81
2023/02/03 05:09:22;;;;;;;;;;;;;;;20.02;34.28;101067.98;105953;1285;75292;-81
2023/02/03 05:11:48;;;;;;;;;;;;;;;20.02;34.27;101070.13;105946;1286;61180;-81
2023/02/03 05:14:13;;;;;;;;;;;;;;;20.02;34.24;101072.27;105951;1286;61249;-82
2023/02/03 05:16:39;;;;;;;;;;;;;;;20.02;34.20;101069.79;105891;1286;61304;-82
2023/02/03 05:19:05;;;;;;;;;;;;;;;20.02;34.20;101072.12;105908;1285;61402;-82
2023/02/03 05:21:30;;;;;;;;;;;;;;;20.01;33.96;101075.40;105922;1286;61346;-82
2023/02/03 05:23:57;;;;;;;;;;;;;;;20.00;34.01;101079.05;106045;1284;61239;-82
2023/02/03 05:26:23;;;;;;;;;;;;;;;19.97;33.91;101086.90;105985;1285;61241;-82
2023/02/03 05:28:48;;;;;;;;;;;;;;;19.93;33.89;101087.11;105921;1286;59348;-82
2023/02/03 05:31:14;;;;;;;;;;;;;;;19.90;33.83;101092.52;105910;1285;61374;-82
2023/02/03 05:33:39;;;;;;;;;;;;;;;19.84;33.92;101090.71;106030;1285;61278;-83
2023/02/03 05:36:05;;;;;;;;;;;;;;;19.79;33.68;101094.76;105983;1285;61196;-83
2023/02/03 05:38:30;;;;;;;;;;;;;;;19.73;33.79;101093.83;106002;1286;61096;-83
2023/02/03 05:43:40;;;;;;;;;;;;;;;19.61;33.63;101102.98;106012;1285;74868;-83
2023/02/03 05:46:06;;;;;;;;;;;;;;;19.55;33.56;101109.23;105885;1285;60792;-83
2023/02/03 05:48:31;;;;;;;;;;;;;;;19.49;33.52;101115.27;105803;1285;61273;-83
2023/02/03 05:50:57;;;;;;;;;;;;;;;19.45;33.43;101120.18;105897;1286;61160;-83
2023/02/03 05:53:22;;;;;;;;;;;;;;;19.41;33.51;101124.69;106069;1286;61377;-83
2023/02/03 05:55:48;;;;;;;;;;;;;;;19.38;33.48;101125.38;105807;1285;75518;-81
2023/02/03 05:58:13;;;;;;;;;;;;;;;19.35;33.57;101125.57;105861;1285;61337;-82
2023/02/03 06:00:39;;;;;;;;;;;;;;;19.30;33.30;101127.82;105872;1285;60007;-81
2023/02/03 06:03:04;;;;;;;;;;;;;;;19.21;33.25;101129.96;105942;1285;61326;-82
2023/02/03 06:05:30;;;;;;;;;;;;;;;19.16;33.27;101135.60;105957;1286;61283;-82
2023/02/03 06:07:56;;;;;;;;;;;;;;;19.13;33.13;101134.71;105991;1286;74400;-81
2023/02/03 06:10:21;;;;;;;;;;;;;;;19.12;33.25;101135.27;105850;1284;60895;-81
2023/02/03 06:12:47;;;;;;;;;;;;;;;19.13;33.08;101139.33;105999;1286;59446;-80
2023/02/03 06:15:12;;;;;;;;;;;;;;;19.15;33.08;101139.63;105932;1285;60785;-80
2023/02/03 06:17:38;;;;;;;;;;;;;;;19.16;33.08;101148.97;106071;1285;61250;-80
2023/02/03 06:20:07;;;;;;;;;;;;;;;19.19;33.10;101155.56;105956;1285;74555;-80
2023/02/03 06:22:33;;;;;;;;;;;;;;;19.23;32.91;101156.76;106055;1285;60551;-80
2023/02/03 06:24:58;;;;;;;;;;;;;;;19.29;32.90;101160.75;105969;1284;59976;-80
2023/02/03 06:27:24;;;;;;;;;;;;;;;19.34;32.88;101156.91;105861;1285;60979;-80
2023/02/03 06:29:49;;;;;;;;;;;;;;;19.38;32.87;101155.00;105857;1286;61140;-80
2023/02/03 06:32:15;;;;;;;;;;;;;;;19.43;32.93;101149.56;105896;1286;60737;-80
2023/02/03 06:34:41;;;;;;;;;;;;;;;19.48;32.92;101154.98;105940;1284;61247;-81
2023/02/03 06:37:06;;;;;;;;;;;;;;;19.52;32.73;101157.22;106025;1285;61324;-81
2023/02/03 06:39:32;;;;;;;;;;;;;;;19.56;32.78;101155.55;106008;1288;61317;-80
2023/02/03 06:41:57;;;;;;;;;;;;;;;19.61;32.76;101160.66;105841;1284;61230;-80
2023/02/03 06:44:23;;;;;;;;;;;;;;;19.65;32.62;101157.23;105888;1284;61278;-82
2023/02/03 06:46:49;;;;;;;;;;;;;;;19.68;32.74;101157.38;105948;1286;61242;-82
2023/02/03 06:49:16;;;;;;;;;;;;;;;19.70;32.74;101162.05;106464;1284;61222;-82
2023/02/03 06:51:43;;;;;;;;;;;;;;;19.73;32.64;101160.27;106255;1285;71914;-83
2023/02/03 06:54:12;;;;;;;;;;;;;;;19.76;32.60;101163.66;105924;1286;59251;-81
2023/02/03 06:56:37;;;;;;;;;;;;;;;19.78;32.77;101167.30;105956;1288;61243;-82
2023/02/03 06:59:03;;;;;;;;;;;;;;;19.80;32.92;101170.42;106016;1285;60108;-81
2023/02/03 07:01:29;;;;;;;;;;;;;;;19.81;32.71;101171.10;105419;1284;664053;-80
2023/02/03 07:03:56;;;;;;;;;;;;;;;19.82;32.78;101172.31;105827;1286;61237;-80
2023/02/03 07:06:22;;;;;;;;;;;;;;;19.84;32.94;101175.54;105839;1285;61562;-80
2023/02/03 07:08:48;;;;;;;;;;;;;;;19.86;32.87;101176.51;105492;1288;61073;-80
2023/02/03 07:11:13;;;;;;;;;;;;;;;19.89;32.99;101180.09;105485;1286;61249;-81
2023/02/03 07:13:39;;;;;;;;;;;;;;;19.92;32.88;101192.77;105577;1286;61292;-80
2023/02/03 07:16:05;;;;;;;;;;;;;;;19.95;32.95;101199.40;105561;1286;63136;-80
2023/02/03 07:18:31;;;;;;;;;;;;;;;19.97;32.96;101200.34;105579;1286;61058;-81
2023/02/03 07:20:57;;;;;;;;;;;;;;;19.99;33.02;101202.70;105529;1286;61371;-80
2023/02/03 07:23:22;;;;;;;;;;;;;;;20.02;33.02;101204.86;105890;1286;62463;-80
2023/02/03 07:25:48;;;;;;;;;;;;;;;20.04;33.02;101214.02;105900;1285;60092;-80
2023/02/03 07:28:13;;;;;;;;;;;;;;;20.06;33.07;101215.33;105920;1286;59691;-80
2023/02/03 07:30:39;;;;;;;;;;;;;;;20.09;33.23;101223.56;105845;1286;60438;-80
2023/02/03 07:33:04;;;;;;;;;;;;;;;20.10;33.23;101229.40;105865;1286;61282;-80
2023/02/03 07:35:30;;;;;;;;;;;;;;;20.12;33.32;101232.11;105861;1285;59616;-80
2023/02/03 07:37:55;;;;;;;;;;;;;;;20.14;33.36;101229.85;105867;1284;61523;-80
2023/02/03 07:40:21;;;;;;;;;;;;;;;20.16;33.25;101235.83;106024;1284;61342;-80
2023/02/03 07:42:47;;;;;;;;;;;;;;;20.17;33.50;101235.20;106015;1285;61240;-80
2023/02/03 07:45:12;;;;;;;;;;;;;;;20.17;33.45;101238.76;105915;1284;59415;-80
2023/02/03 07:47:39;;;;;;;;;;;;;;;20.18;33.61;101243.17;105962;1286;59678;-80
2023/02/03 07:50:04;;;;;;;;;;;;;;;20.21;33.68;101242.85;105753;1284;61349;-80
2023/02/03 07:52:30;;;;;;;;;;;;;;;20.21;33.76;101236.40;105921;1286;60893;-81
2023/02/03 07:54:55;;;;;;;;;;;;;;;20.21;33.76;101238.89;105959;1286;59857;-82
2023/02/03 07:57:21;;;;;;;;;;;;;;;20.22;33.75;101236.69;105862;1286;61063;-81
2023/02/03 07:59:46;;;;;;;;;;;;;;;20.23;33.92;101240.20;105830;1291;72416;-81
2023/02/03 08:02:12;;;;;;;;;;;;;;;20.24;33.84;101244.77;105669;1286;60748;-81
2023/02/03 08:04:37;;;;;;;;;;;;;;;20.24;33.93;101248.36;105812;1286;61352;-81
2023/02/03 08:07:03;;;;;;;;;;;;;;;20.23;33.91;101250.55;105701;1286;61273;-81
2023/02/03 08:09:28;;;;;;;;;;;;;;;20.24;33.95;101256.80;105843;1284;61266;-81
2023/02/03 08:11:54;;;;;;;;;;;;;;;20.24;34.14;101260.54;105893;1284;73497;-81
2023/02/03 08:14:20;;;;;;;;;;;;;;;20.24;34.09;101268.58;105759;1286;60889;-81
2023/02/03 08:16:45;;;;;;;;;;;;;;;20.23;34.08;101264.31;105873;1286;61265;-81
2023/02/03 08:19:11;;;;;;;;;;;;;;;20.24;34.09;101260.35;105951;1285;62517;-81
2023/02/03 08:21:37;;;;;;;;;;;;;;;20.25;34.05;101258.51;105858;1286;61075;-81
2023/02/03 08:24:02;;;;;;;;;;;;;;;20.25;34.07;101255.99;105973;1284;59691;-81
2023/02/03 08:26:28;;;;;;;;;;;;;;;20.26;34.02;101254.89;105791;1286;62609;-81
2023/02/03 08:28:53;;;;;;;;;;;;;;;20.26;34.07;101254.33;105593;1288;59604;-81
2023/02/03 08:31:19;;;;;;;;;;;;;;;20.26;33.91;101252.71;105516;1293;61283;-81
2023/02/03 08:33:45;;;;;;;;;;;;;;;20.26;34.00;101253.04;105444;1288;61364;-81
2023/02/03 08:36:10;;;;;;;;;;;;;;;20.26;33.93;101255.56;105556;1288;61534;-82
2023/02/03 08:38:36;;;;;;;;;;;;;;;20.26;33.82;101254.33;105701;1289;60021;-82
2023/02/03 08:41:07;;;;;;;;;;;;;;;20.26;33.81;101252.92;105640;1289;59401;-82
2023/02/03 08:43:32;;;;;;;;;;;;;;;20.25;33.95;101258.14;105529;1289;60247;-82
2023/02/03 08:46:01;;;;;;;;;;;;;;;20.24;33.68;101259.07;105649;1289;61384;-81
2023/02/03 08:48:26;;;;;;;;;;;;;;;20.24;33.81;101261.39;105648;1289;74404;-83
2023/02/03 08:50:52;;;;;;;;;;;;;;;20.24;33.76;101266.77;105540;1289;61108;-82
2023/02/03 08:53:17;;;;;;;;;;;;;;;20.23;33.76;101270.04;105557;1289;61238;-81
2023/02/03 08:55:44;;;;;;;;;;;;;;;20.22;33.72;101273.48;105649;1289;61310;-81
2023/02/03 08:58:09;;;;;;;;;;;;;;;20.22;33.75;101275.65;105540;1289;59471;-81
2023/02/03 09:00:35;;;;;;;;;;;;;;;20.21;33.79;101277.34;105837;1286;61432;-80
2023/02/03 09:03:00;;;;;;;;;;;;;;;20.19;33.83;101280.34;105840;1285;60983;-81
2023/02/03 09:05:26;;;;;;;;;;;;;;;20.16;33.97;101281.05;105828;1286;61423;-81
2023/02/03 09:07:51;;;;;;;;;;;;;;;20.11;33.70;101285.10;105908;1285;59383;-80
2023/02/03 09:10:17;;;;;;;;;;;;;;;20.08;33.87;101287.23;106003;1286;59547;-81
2023/02/03 09:12:42;;;;;;;;;;;;;;;20.06;33.89;101290.77;105918;1284;61074;-81
2023/02/03 09:15:09;;;;;;;;;;;;;;;20.05;33.72;101291.65;105873;1284;59214;-82
2023/02/03 09:17:35;;;;;;;;;;;;;;;20.06;33.80;101294.69;105978;1288;60699;-81
2023/02/03 09:20:00;;;;;;;;;;;;;;;20.06;33.86;101293.73;105874;1285;59786;-81
2023/02/03 09:22:25;;;;;;;;;;;;;;;20.07;33.90;101292.80;105901;1285;60693;-81
2023/02/03 09:24:51;;;;;;;;;;;;;;;20.07;33.92;101289.73;105855;1285;61376;-81
2023/02/03 09:27:17;;;;;;;;;;;;;;;20.08;33.76;101287.02;105806;1285;61697;-82
2023/02/03 09:29:43;;;;;;;;;;;;;;;20.09;33.87;101280.02;105891;1286;62282;-81
2023/02/03 09:32:09;;;;;;;;;;;;;;;20.10;33.84;101279.60;105879;1286;61755;-81
2023/02/03 09:34:35;;;;;;;;;;;;;;;20.10;33.71;101277.60;106147;1285;62104;-81
2023/02/03 09:37:00;;;;;;;;;;;;;;;20.12;33.66;101283.63;105931;1284;61255;-81
2023/02/03 09:39:26;;;;;;;;;;;;;;;20.12;33.69;101284.69;105927;1286;59716;-81
2023/02/03 09:41:57;;;;;;;;;;;;;;;20.12;33.74;101280.03;106013;1286;61290;-82
2023/02/03 09:44:32;;;;;;;;;;;;;;;20.13;33.76;101281.21;106039;1288;72607;-81
2023/02/03 09:46:59;;;;;;;;;;;;;;;20.14;33.67;101283.11;105972;1285;74361;-82
2023/02/03 09:49:31;;;;;;;;;;;;;;;20.14;33.73;101284.20;106009;1286;61863;-81
2023/02/03 09:52:21;;;;;;;;;;;;;;;20.14;33.74;101283.49;105909;1286;61158;-81
2023/02/03 09:55:05;;;;;;;;;;;;;;;20.14;33.85;101284.17;106041;1285;72539;-81
2023/02/03 09:57:35;;;;;;;;;;;;;;;20.16;33.87;101277.84;106030;1285;75565;-81
2023/02/03 10:00:02;;;;;;;;;;;;;;;20.16;33.76;101280.14;105967;1285;61241;-81
2023/02/03 10:02:31;;;;;;;;;;;;;;;20.15;33.92;101280.23;105840;1285;62493;-83
2023/02/03 10:04:59;;;;;;;;;;;;;;;20.09;33.70;101286.61;105904;1288;72340;-82
2023/02/03 10:07:45;;;;;;;;;;;;;;;19.92;33.48;101290.66;105852;1285;74957;-82
2023/02/03 10:10:14;;;;;;;;;;;;;;;19.65;33.33;101286.30;105850;1285;61452;-83
2023/02/03 10:12:39;;;;;;;;;;;;;;;19.56;33.39;101288.73;105790;1284;61579;-83
2023/02/03 10:15:08;;;;;;;;;;;;;;;19.55;33.63;101292.91;105956;1285;59374;-82
2023/02/03 10:17:45;;;;;;;;;;;;;;;19.54;33.60;101290.84;105967;1285;75193;-82
2023/02/03 10:20:13;;;;;;;;;;;;;;;19.54;33.67;101287.98;105912;1286;59904;-82
2023/02/03 10:22:44;;;;;;;;;;;;;;;19.54;33.58;101289.24;105925;1284;60591;-83
2023/02/03 10:25:13;;;;;;;;;;;;;;;19.53;33.39;101290.00;105841;1285;72250;-82
2023/02/03 10:27:38;;;;;;;;;;;;;;;19.54;33.50;101285.15;106010;1285;74741;-82
2023/02/03 10:30:09;;;;;;;;;;;;;;;19.54;33.35;101284.62;105972;1285;59642;-82
2023/02/03 10:32:36;;;;;;;;;;;;;;;19.52;33.25;101286.47;106249;1285;61696;-82
2023/02/03 10:35:01;;;;;;;;;;;;;;;19.51;33.23;101281.19;106191;1286;73413;-82
2023/02/03 10:37:30;;;;;;;;;;;;;;;19.51;33.04;101279.95;106047;1285;60982;-82
2023/02/03 10:39:56;;;;;;;;;;;;;;;19.50;33.25;101284.49;105913;1285;61269;-82
2023/02/03 10:42:22;;;;;;;;;;;;;;;19.48;33.02;101281.20;105919;1285;61224;-82
2023/02/03 10:44:48;;;;;;;;;;;;;;;19.48;33.02;101287.98;105879;1286;61246;-82
2023/02/03 10:47:23;;;;;;;;;;;;;;;19.47;33.07;101288.73;105898;1286;60018;-83
2023/02/03 10:49:49;;;;;;;;;;;;;;;19.47;32.99;101288.38;105969;1286;61101;-83
2023/02/03 10:52:29;;;;;;;;;;;;;;;19.45;32.84;101289.93;105928;1286;60363;-83
2023/02/03 10:54:55;;;;;;;;;;;;;;;19.41;32.70;101284.41;105680;1285;71177;-82
2023/02/03 10:57:20;;;;;;;;;;;;;;;19.38;32.79;101284.07;106539;1286;59556;-83
2023/02/03 10:59:46;;;;;;;;;;;;;;;19.37;32.70;101284.10;106385;1286;60343;-83
2023/02/03 11:02:24;;;;;;;;;;;;;;;19.36;32.71;101280.94;106266;1285;59559;-83
2023/02/03 11:05:10;;;;;;;;;;;;;;;19.36;32.67;101278.84;106192;1285;73637;-82
2023/02/03 11:07:36;;;;;;;;;;;;;;;19.29;32.62;101277.27;106346;1286;74336;-82
2023/02/03 11:10:01;;;;;;;;;;;;;;;19.20;32.62;101275.46;106168;1286;59432;-83
2023/02/03 11:12:27;;;;;;;;;;;;;;;19.16;32.58;101278.35;106315;1286;59134;-81
2023/02/03 11:14:52;;;;;;;;;;;;;;;19.13;32.48;101278.36;106208;1286;59105;-82
2023/02/03 11:17:18;;;;;;;;;;;;;;;19.12;32.54;101273.58;106378;1286;59426;-82
2023/02/03 11:19:44;;;;;;;;;;;;;;;19.13;32.57;101267.80;106446;1286;74744;-82
2023/02/03 11:22:10;;;;;;;;;;;;;;;19.14;32.56;101267.20;105952;1285;61201;-82
2023/02/03 11:24:36;;;;;;;;;;;;;;;19.14;32.37;101264.69;105932;1286;61292;-82
2023/02/03 11:27:03;;;;;;;;;;;;;;;19.13;32.24;101262.61;106064;1288;61029;-82
2023/02/03 11:29:31;;;;;;;;;;;;;;;19.13;32.18;101259.24;105898;1290;75262;-82
2023/02/03 11:31:57;;;;;;;;;;;;;;;19.11;32.19;101254.17;105883;1286;61318;-82
2023/02/03 11:34:33;;;;;;;;;;;;;;;19.09;32.27;101249.98;106000;1285;61172;-82
2023/02/03 11:37:18;;;;;;;;;;;;;;;19.09;32.25;101250.68;106039;1287;71809;-82
2023/02/03 11:39:44;;;;;;;;;;;;;;;19.11;32.04;101249.90;105913;1285;76556;-82
2023/02/03 11:42:23;;;;;;;;;;;;;;;19.12;32.17;101246.28;106017;1285;59521;-82
2023/02/03 11:44:49;;;;;;;;;;;;;;;19.12;32.24;101243.77;105973;1286;61162;-82
2023/02/03 11:47:15;;;;;;;;;;;;;;;19.12;32.17;101240.73;105886;1286;60640;-82
2023/02/03 11:49:59;;;;;;;;;;;;;;;19.13;32.15;101239.09;106731;1285;59452;-82
2023/02/03 11:52:44;;;;;;;;;;;;;;;19.12;32.15;101239.14;105862;1285;61081;-83
2023/02/03 11:55:20;;;;;;;;;;;;;;;19.11;32.00;101240.79;105976;1286;61587;-82
2023/02/03 11:57:48;;;;;;;;;;;;;;;19.09;31.99;101239.09;105984;1285;73659;-82
2023/02/03 12:00:25;;;;;;;;;;;;;;;19.02;31.83;101236.27;106035;1286;75517;-82
2023/02/03 12:03:12;;;;;;;;;;;;;;;18.84;31.56;101235.65;106082;1288;61217;-82
2023/02/03 12:05:41;;;;;;;;;;;;;;;18.82;31.76;101228.08;106250;1288;60047;-82
2023/02/03 12:08:16;;;;;;;;;;;;;;;18.83;31.59;101228.02;106512;1285;72579;-82
2023/02/03 12:10:54;;;;;;;;;;;;;;;18.78;31.68;101228.31;106564;1286;75429;-82
2023/02/03 12:13:19;;;;;;;;;;;;;;;18.80;31.56;101223.40;106409;1286;59803;-83
2023/02/03 12:15:50;;;;;;;;;;;;;;;18.83;31.58;101216.63;106410;1286;59088;-82
2023/02/03 12:18:24;;;;;;;;;;;;;;;18.88;32.01;101211.54;106523;1286;72580;-82
2023/02/03 12:20:55;;;;;;;;;;;;;;;18.95;32.12;101215.11;106553;1286;74577;-82
2023/02/03 12:23:24;;;;;;;;;;;;;;;19.00;32.18;101211.59;106596;1288;59783;-82
2023/02/03 12:25:55;;;;;;;;;;;;;;;19.05;32.09;101210.45;106404;1286;59945;-82
2023/02/03 12:28:27;;;;;;;;;;;;;;;19.08;32.24;101206.66;106458;1286;71869;-82
2023/02/03 12:30:59;;;;;;;;;;;;;;;19.14;32.14;101204.60;106363;1285;74652;-81